createdAt,value
2023-09-04T00:02:01.480Z,89.10
2023-09-04T00:04:29.514Z,89.20
2023-09-04T00:06:58.900Z,89.30
2023-09-04T00:09:26.748Z,89.30
2023-09-04T00:11:54.550Z,89.30
2023-09-04T00:14:22.378Z,89.20
2023-09-04T00:16:50.450Z,89.10
2023-09-04T00:19:18.864Z,89.20
2023-09-04T00:21:46.823Z,89.30
2023-09-04T00:24:15.988Z,89.40
2023-09-04T00:26:43.826Z,89.30
2023-09-04T00:29:12.142Z,89.30
2023-09-04T00:31:40.059Z,89.10
2023-09-04T00:34:07.890Z,89.20
2023-09-04T00:36:35.671Z,89.10
2023-09-04T00:39:03.693Z,89.50
2023-09-04T00:41:32.838Z,89.50
2023-09-04T00:44:00.685Z,89.50
2023-09-04T00:46:28.775Z,89.50
2023-09-04T00:48:56.796Z,89.60
2023-09-04T00:51:25.199Z,89.90
2023-09-04T00:53:53.262Z,89.70
2023-09-04T00:56:21.636Z,89.70
2023-09-04T00:58:51.466Z,89.80
2023-09-04T01:01:20.921Z,89.60
2023-09-04T01:03:48.814Z,89.70
2023-09-04T01:06:16.921Z,89.70
2023-09-04T01:08:44.788Z,89.80
2023-09-04T01:11:22.621Z,89.70
2023-09-04T01:13:53.995Z,89.50
2023-09-04T01:16:23.788Z,89.50
2023-09-04T01:18:52.650Z,89.70
2023-09-04T01:21:21.994Z,89.80
2023-09-04T01:29:22.480Z,89.80
2023-09-04T01:31:56.439Z,89.90
2023-09-04T01:34:28.257Z,89.90
2023-09-04T01:37:02.359Z,90.10
2023-09-04T01:39:32.872Z,90.20
2023-09-04T01:42:03.790Z,90.20
2023-09-04T01:44:33.641Z,90.30
2023-09-04T01:47:02.027Z,90.40
2023-09-04T01:49:31.442Z,90.40
2023-09-04T01:52:02.550Z,90.30
2023-09-04T01:54:31.019Z,90.30
2023-09-04T01:57:08.335Z,90.30
2023-09-04T01:59:36.752Z,90.30
2023-09-04T02:02:04.967Z,90.40
2023-09-04T02:04:33.469Z,90.30
2023-09-04T02:07:03.380Z,90.30
2023-09-04T02:09:39.948Z,90.40
2023-09-04T02:12:11.108Z,90.40
2023-09-04T02:14:39.680Z,90.20
2023-09-04T02:17:10.658Z,90.20
2023-09-04T02:19:41.738Z,90.10
2023-09-04T02:22:11.199Z,90.20
2023-09-04T02:24:49.534Z,90.20
2023-09-04T02:27:26.427Z,90.10
2023-09-04T02:30:00.528Z,90.20
2023-09-04T02:32:32.038Z,90.10
2023-09-04T02:35:04.662Z,90.10
2023-09-04T02:37:37.136Z,90.20
2023-09-04T02:40:12.513Z,90.30
2023-09-04T02:42:51.817Z,90.20
2023-09-04T02:45:21.196Z,90.10
2023-09-04T02:47:49.502Z,90.30
2023-09-04T02:50:19.215Z,90.40
2023-09-04T02:52:52.538Z,90.60
2023-09-04T02:55:21.060Z,90.50
2023-09-04T02:57:49.885Z,90.60
2023-09-04T03:00:18.079Z,90.50
2023-09-04T03:02:46.180Z,90.30
2023-09-04T03:05:18.153Z,90.40
2023-09-04T03:07:46.630Z,90.30
2023-09-04T03:10:16.182Z,90.40
2023-09-04T03:12:55.246Z,90.40
2023-09-04T03:15:26.804Z,90.30
2023-09-04T03:17:57.315Z,90.20
2023-09-04T03:20:25.507Z,90.10
2023-09-04T03:22:54.344Z,90.30
2023-09-04T03:25:24.454Z,90.40
2023-09-04T03:27:53.846Z,90.40
2023-09-04T03:30:22.035Z,90.30
2023-09-04T03:32:51.298Z,90.40
2023-09-04T03:35:27.762Z,90.40
2023-09-04T03:38:00.519Z,90.40
2023-09-04T03:40:34.195Z,90.50
2023-09-04T03:43:02.430Z,90.30
2023-09-04T03:45:35.885Z,90.40
2023-09-04T03:48:04.474Z,90.40
2023-09-04T03:50:40.822Z,90.40
2023-09-04T03:53:12.700Z,90.40
2023-09-04T03:55:44.611Z,90.20
2023-09-04T03:58:15.450Z,90.20
2023-09-04T04:00:46.264Z,90.30
2023-09-04T04:03:21.831Z,90.30
2023-09-04T04:05:50.930Z,90.40
2023-09-04T04:08:22.315Z,90.30
2023-09-04T04:10:52.171Z,90.30
2023-09-04T04:13:22.998Z,90.30
2023-09-04T04:15:52.350Z,90.30
2023-09-04T04:18:26.396Z,90.40
2023-09-04T04:20:55.025Z,90.40
2023-09-04T04:23:25.403Z,90.50
2023-09-04T04:25:57.961Z,90.50
2023-09-04T04:28:30.985Z,90.50
2023-09-04T04:31:05.290Z,90.60
2023-09-04T04:33:37.513Z,90.50
2023-09-04T04:36:06.415Z,90.50
2023-09-04T04:38:42.269Z,90.30
2023-09-04T04:41:11.976Z,90.40
2023-09-04T04:43:49.810Z,90.30
2023-09-04T04:46:28.086Z,90.30
2023-09-04T04:49:00.038Z,90.30
2023-09-04T04:51:28.835Z,90.20
2023-09-04T04:53:57.231Z,90.10
2023-09-04T04:56:34.137Z,90.10
2023-09-04T04:59:02.733Z,90.20
2023-09-04T05:01:33.930Z,90.40
2023-09-04T05:04:02.422Z,90.50
2023-09-04T05:06:30.984Z,90.60
2023-09-04T05:08:59.483Z,90.60
2023-09-04T05:11:40.603Z,90.60
2023-09-04T05:14:11.985Z,90.40
2023-09-04T05:16:40.448Z,90.60
2023-09-04T05:19:12.191Z,90.70
2023-09-04T05:21:55.578Z,90.60
2023-09-04T05:24:39.450Z,90.60
2023-09-04T05:27:11.561Z,90.80
2023-09-04T05:29:39.616Z,90.90
2023-09-04T05:32:09.371Z,90.90
2023-09-04T05:34:41.409Z,91.00
2023-09-04T05:37:26.771Z,91.40
2023-09-04T05:39:57.999Z,91.10
2023-09-04T05:42:29.260Z,91.10
2023-09-04T05:44:58.170Z,91.10
2023-09-04T05:47:29.338Z,91.50
2023-09-04T05:50:01.821Z,91.70
2023-09-04T05:52:30.487Z,92.10
2023-09-04T05:54:59.547Z,92.20
2023-09-04T05:57:34.000Z,92.20
2023-09-04T06:00:04.231Z,92.40
2023-09-04T06:02:32.754Z,92.50
2023-09-04T06:05:01.331Z,92.80
2023-09-04T06:07:31.673Z,92.80
2023-09-04T06:12:55.655Z,92.70
2023-09-04T06:15:23.648Z,92.50
2023-09-04T06:17:53.176Z,92.50
2023-09-04T06:20:22.098Z,92.50
2023-09-04T06:22:51.081Z,92.10
2023-09-04T06:25:19.528Z,92.00
2023-09-04T06:27:48.824Z,91.90
2023-09-04T06:30:17.254Z,91.70
2023-09-04T06:32:46.358Z,91.30
2023-09-04T06:35:15.417Z,91.10
2023-09-04T06:37:52.119Z,90.90
2023-09-04T06:40:20.218Z,90.30
2023-09-04T06:42:50.374Z,90.20
2023-09-04T06:45:24.464Z,90.40
2023-09-04T06:47:52.586Z,89.30
2023-09-04T06:50:23.552Z,89.60
2023-09-04T06:52:52.080Z,89.20
2023-09-04T06:55:20.165Z,88.70
2023-09-04T06:57:49.588Z,88.10
2023-09-04T07:00:18.344Z,88.10
2023-09-04T07:02:47.174Z,87.60
2023-09-04T07:05:18.516Z,87.20
2023-09-04T07:07:48.950Z,87.60
2023-09-04T07:10:17.146Z,86.80
2023-09-04T07:12:45.944Z,86.50
2023-09-04T07:18:03.327Z,85.60
2023-09-04T07:20:31.744Z,86.20
2023-09-04T07:23:14.090Z,85.40
2023-09-04T07:25:42.770Z,85.10
2023-09-04T07:28:10.574Z,84.80
2023-09-04T07:30:39.742Z,84.00
2023-09-04T07:33:07.593Z,82.70
2023-09-04T07:35:35.563Z,83.20
2023-09-04T07:38:03.513Z,82.90
2023-09-04T07:40:31.412Z,82.40
2023-09-04T07:42:59.267Z,81.00
2023-09-04T07:45:27.497Z,81.50
2023-09-04T07:47:56.889Z,81.50
2023-09-04T07:50:24.806Z,82.00
2023-09-04T07:52:52.610Z,81.10
2023-09-04T07:55:20.410Z,80.10
2023-09-04T07:57:48.237Z,78.90
2023-09-04T08:00:22.772Z,80.40
2023-09-04T08:02:51.299Z,79.70
2023-09-04T08:05:20.573Z,78.80
2023-09-04T08:07:48.379Z,78.30
2023-09-04T08:10:16.287Z,78.40
2023-09-04T08:12:44.132Z,78.00
2023-09-04T08:15:12.146Z,77.10
2023-09-04T08:17:42.252Z,77.30
2023-09-04T08:20:11.740Z,77.20
2023-09-04T08:22:40.888Z,77.60
2023-09-04T08:25:09.714Z,77.00
2023-09-04T08:27:40.809Z,76.60
2023-09-04T08:30:09.721Z,76.00
2023-09-04T08:32:38.010Z,76.60
2023-09-04T08:35:06.656Z,75.90
2023-09-04T08:37:34.551Z,75.60
2023-09-04T08:40:03.760Z,75.50
2023-09-04T08:42:32.061Z,74.70
2023-09-04T08:45:00.420Z,74.60
2023-09-04T08:47:28.466Z,74.10
2023-09-04T08:49:57.756Z,73.40
2023-09-04T08:52:25.960Z,73.40
2023-09-04T08:54:54.126Z,73.90
2023-09-04T08:57:23.594Z,73.50
2023-09-04T08:59:51.266Z,72.20
2023-09-04T09:02:20.707Z,73.10
2023-09-04T09:04:48.722Z,72.60
2023-09-04T09:07:16.417Z,72.20
2023-09-04T09:09:46.128Z,71.10
2023-09-04T09:12:13.850Z,72.20
2023-09-04T09:14:42.856Z,71.10
2023-09-04T09:17:12.010Z,71.40
2023-09-04T09:19:40.533Z,70.90
2023-09-04T09:22:12.171Z,68.70
2023-09-04T09:24:52.968Z,69.40
2023-09-04T09:27:23.184Z,70.20
2023-09-04T09:29:53.784Z,70.30
2023-09-04T09:32:21.604Z,71.00
2023-09-04T09:34:49.969Z,69.60
2023-09-04T09:37:17.688Z,71.20
2023-09-04T09:39:45.468Z,68.50
2023-09-04T09:42:13.252Z,68.80
2023-09-04T09:44:42.247Z,68.20
2023-09-04T09:47:13.533Z,70.10
2023-09-04T09:49:42.453Z,68.00
2023-09-04T09:52:10.431Z,66.60
2023-09-04T09:54:38.514Z,65.80
2023-09-04T09:57:08.646Z,65.40
2023-09-04T09:59:37.171Z,65.10
2023-09-04T10:02:05.688Z,65.60
2023-09-04T10:04:35.659Z,64.00
2023-09-04T10:07:03.930Z,65.10
2023-09-04T10:09:36.649Z,65.00
2023-09-04T10:12:08.916Z,62.10
2023-09-04T10:14:40.688Z,61.30
2023-09-04T10:17:12.104Z,60.60
2023-09-04T10:19:42.964Z,61.00
2023-09-04T10:22:16.282Z,61.00
2023-09-04T10:24:46.488Z,62.40
2023-09-04T10:27:15.261Z,62.00
2023-09-04T10:29:48.855Z,60.50
2023-09-04T10:32:16.933Z,60.90
2023-09-04T10:34:46.218Z,61.00
2023-09-04T10:37:14.158Z,60.80
2023-09-04T10:39:42.071Z,59.40
2023-09-04T10:42:09.985Z,58.70
2023-09-04T10:44:47.689Z,58.90
2023-09-04T10:47:15.863Z,60.90
2023-09-04T10:49:44.356Z,57.60
2023-09-04T10:52:13.851Z,58.90
2023-09-04T10:54:42.061Z,58.50
2023-09-04T10:57:12.849Z,56.90
2023-09-04T10:59:59.246Z,55.60
2023-09-04T11:02:29.012Z,54.60
2023-09-04T11:04:57.309Z,57.40
2023-09-04T11:07:33.089Z,53.50
2023-09-04T11:10:03.398Z,51.90
2023-09-04T11:12:33.506Z,55.00
2023-09-04T11:15:01.172Z,54.10
2023-09-04T11:17:29.283Z,55.00
2023-09-04T11:19:57.503Z,50.30
2023-09-04T11:22:26.180Z,50.00
2023-09-04T11:24:56.132Z,50.60
2023-09-04T11:27:24.776Z,50.40
2023-09-04T11:29:52.789Z,50.40
2023-09-04T11:32:20.919Z,51.50
2023-09-04T11:34:49.496Z,51.20
2023-09-04T11:37:17.481Z,48.80
2023-09-04T11:39:59.033Z,48.00
2023-09-04T11:42:30.492Z,45.20
2023-09-04T11:44:58.190Z,50.70
2023-09-04T11:47:26.066Z,48.30
2023-09-04T11:49:54.260Z,49.00
2023-09-04T11:52:24.668Z,49.20
2023-09-04T11:54:54.070Z,46.70
2023-09-04T11:57:23.257Z,49.70
2023-09-04T11:59:51.149Z,46.00
2023-09-04T12:02:19.286Z,44.70
2023-09-04T12:04:47.489Z,45.60
2023-09-04T12:07:17.195Z,46.80
2023-09-04T12:09:44.927Z,46.20
2023-09-04T12:12:12.777Z,46.80
2023-09-04T12:14:47.214Z,45.50
2023-09-04T12:17:14.946Z,48.00
2023-09-04T12:19:44.062Z,45.60
2023-09-04T12:22:13.047Z,46.40
2023-09-04T12:24:40.859Z,47.30
2023-09-04T12:27:08.909Z,45.60
2023-09-04T12:29:37.387Z,45.20
2023-09-04T12:32:11.504Z,48.10
2023-09-04T12:34:39.304Z,46.50
2023-09-04T12:37:06.985Z,48.00
2023-09-04T12:39:36.606Z,47.20
2023-09-04T12:42:05.995Z,49.30
2023-09-04T12:44:33.629Z,48.90
2023-09-04T12:47:01.276Z,50.90
2023-09-04T12:49:34.148Z,49.10
2023-09-04T12:52:02.009Z,46.90
2023-09-04T12:54:29.679Z,48.40
2023-09-04T12:56:57.315Z,46.10
2023-09-04T12:59:25.040Z,45.30
2023-09-04T13:01:52.704Z,47.00
2023-09-04T13:04:21.210Z,46.50
2023-09-04T13:06:50.513Z,47.70
2023-09-04T13:09:18.406Z,48.90
2023-09-04T13:11:46.090Z,47.70
2023-09-04T13:14:13.787Z,49.20
2023-09-04T13:16:41.550Z,48.30
2023-09-04T13:19:09.291Z,49.60
2023-09-04T13:21:40.143Z,50.50
2023-09-04T13:24:21.617Z,48.50
2023-09-04T13:26:49.262Z,48.50
2023-09-04T13:29:17.732Z,49.80
2023-09-04T13:31:45.382Z,49.70
2023-09-04T13:34:13.033Z,51.00
2023-09-04T13:36:40.678Z,50.10
2023-09-04T13:39:08.351Z,51.80
2023-09-04T13:41:37.582Z,49.50
2023-09-04T13:44:05.765Z,50.20
2023-09-04T13:46:35.083Z,53.70
2023-09-04T13:49:02.874Z,53.20
2023-09-04T13:51:30.582Z,50.50
2023-09-04T13:53:58.237Z,50.70
2023-09-04T13:56:25.889Z,51.00
2023-09-04T13:58:54.851Z,50.10
2023-09-04T14:01:23.418Z,51.90
2023-09-04T14:03:51.171Z,52.70
2023-09-04T14:06:19.043Z,51.50
2023-09-04T14:08:46.687Z,51.10
2023-09-04T14:11:14.434Z,49.90
2023-09-04T14:13:42.122Z,51.00
2023-09-04T14:16:11.203Z,52.80
2023-09-04T14:18:38.870Z,47.60
2023-09-04T14:21:06.535Z,50.70
2023-09-04T14:23:34.404Z,51.20
2023-09-04T14:26:02.135Z,50.60
2023-09-04T14:28:30.023Z,49.80
2023-09-04T14:30:57.693Z,50.40
2023-09-04T14:33:27.595Z,49.30
2023-09-04T14:35:59.414Z,50.50
2023-09-04T14:38:27.341Z,49.70
2023-09-04T14:40:56.989Z,51.20
2023-09-04T14:43:24.875Z,50.70
2023-09-04T14:46:07.833Z,50.10
2023-09-04T14:48:38.602Z,50.20
2023-09-04T14:51:06.543Z,49.70
2023-09-04T14:53:34.211Z,49.60
2023-09-04T14:56:01.944Z,51.20
2023-09-04T14:58:29.623Z,50.20
2023-09-04T15:00:57.945Z,47.50
2023-09-04T15:03:26.003Z,50.50
2023-09-04T15:06:01.121Z,51.10
2023-09-04T15:08:31.800Z,50.40
2023-09-04T15:11:00.708Z,50.20
2023-09-04T15:13:28.641Z,50.60
2023-09-04T15:15:56.745Z,49.60
2023-09-04T15:18:24.722Z,51.80
2023-09-04T15:20:52.765Z,48.20
2023-09-04T15:23:23.422Z,47.80
2023-09-04T15:25:53.493Z,48.30
2023-09-04T15:28:21.660Z,49.40
2023-09-04T15:30:49.656Z,48.00
2023-09-04T15:33:17.545Z,47.60
2023-09-04T15:35:48.309Z,48.70
2023-09-04T15:38:16.275Z,51.10
2023-09-04T15:40:45.282Z,51.30
2023-09-04T15:43:13.094Z,47.80
2023-09-04T15:45:41.850Z,49.00
2023-09-04T15:48:09.655Z,48.30
2023-09-04T15:50:37.382Z,49.20
2023-09-04T15:53:05.349Z,51.00
2023-09-04T15:55:33.044Z,51.80
2023-09-04T15:58:02.050Z,50.10
2023-09-04T16:00:30.089Z,53.20
2023-09-04T16:02:57.863Z,51.70
2023-09-04T16:05:26.557Z,52.10
2023-09-04T16:07:54.431Z,53.50
2023-09-04T16:10:22.075Z,54.00
2023-09-04T16:12:49.820Z,52.50
2023-09-04T16:15:20.064Z,51.00
2023-09-04T16:17:48.521Z,49.90
2023-09-04T16:20:16.370Z,49.90
2023-09-04T16:22:44.091Z,49.30
2023-09-04T16:25:12.031Z,49.80
2023-09-04T16:27:39.882Z,52.20
2023-09-04T16:30:09.806Z,54.30
2023-09-04T16:32:39.126Z,55.30
2023-09-04T16:35:07.290Z,56.60
2023-09-04T16:37:34.949Z,56.40
2023-09-04T16:40:02.611Z,58.30
2023-09-04T16:42:31.978Z,56.80
2023-09-04T16:44:59.670Z,59.70
2023-09-04T16:47:27.372Z,60.70
2023-09-04T16:49:56.422Z,61.30
2023-09-04T16:52:24.147Z,62.20
2023-09-04T16:54:52.048Z,62.70
2023-09-04T16:57:22.014Z,62.70
2023-09-04T16:59:49.681Z,63.60
2023-09-04T17:02:17.346Z,63.90
2023-09-04T17:04:45.057Z,64.60
2023-09-04T17:07:14.138Z,65.00
2023-09-04T17:09:41.773Z,65.80
2023-09-04T17:12:10.405Z,65.90
2023-09-04T17:14:38.161Z,66.60
2023-09-04T17:17:05.803Z,67.00
2023-09-04T17:19:33.457Z,67.10
2023-09-04T17:22:01.107Z,67.60
2023-09-04T17:24:30.148Z,67.90
2023-09-04T17:26:57.789Z,68.40
2023-09-04T17:29:25.427Z,69.00
2023-09-04T17:31:55.438Z,69.10
2023-09-04T17:34:25.505Z,68.90
2023-09-04T17:36:53.756Z,69.30
2023-09-04T17:39:21.431Z,69.60
2023-09-04T17:41:50.415Z,69.80
2023-09-04T17:44:18.096Z,70.40
2023-09-04T17:46:45.759Z,71.10
2023-09-04T17:49:13.497Z,71.60
2023-09-04T17:51:41.178Z,72.20
2023-09-04T17:54:08.961Z,72.70
2023-09-04T17:56:37.037Z,73.20
2023-09-04T17:59:06.105Z,73.30
2023-09-04T18:01:33.875Z,73.70
2023-09-04T18:04:01.934Z,73.90
2023-09-04T18:06:31.594Z,74.20
2023-09-04T18:09:00.730Z,74.90
2023-09-04T18:11:28.422Z,75.60
2023-09-04T18:13:56.766Z,75.60
2023-09-04T18:16:25.867Z,75.50
2023-09-04T18:18:53.827Z,75.70
2023-09-04T18:21:21.568Z,75.90
2023-09-04T18:23:49.704Z,76.10
2023-09-04T18:26:17.450Z,76.60
2023-09-04T18:28:45.163Z,76.90
2023-09-04T18:31:16.112Z,77.20
2023-09-04T18:33:45.620Z,77.50
2023-09-04T18:36:13.944Z,77.60
2023-09-04T18:38:45.247Z,77.70
2023-09-04T18:41:13.322Z,77.80
2023-09-04T18:43:41.296Z,78.00
2023-09-04T18:46:10.302Z,78.20
2023-09-04T18:48:37.965Z,78.40
2023-09-04T18:51:07.276Z,78.40
2023-09-04T18:53:35.825Z,78.60
2023-09-04T18:56:03.472Z,78.20
2023-09-04T18:58:31.387Z,78.10
2023-09-04T19:00:59.910Z,78.00
2023-09-04T19:03:27.785Z,78.00
2023-09-04T19:05:55.502Z,78.40
2023-09-04T19:08:25.558Z,78.50
2023-09-04T19:10:54.108Z,78.70
2023-09-04T19:13:22.252Z,79.00
2023-09-04T19:15:50.060Z,79.00
2023-09-04T19:18:17.935Z,79.10
2023-09-04T19:20:45.603Z,79.30
2023-09-04T19:23:13.270Z,79.20
2023-09-04T19:25:42.250Z,79.20
2023-09-04T19:28:10.426Z,79.30
2023-09-04T19:30:38.136Z,79.40
2023-09-04T19:33:06.322Z,79.40
2023-09-04T19:35:35.943Z,79.40
2023-09-04T19:38:06.107Z,79.60
2023-09-04T19:40:34.068Z,79.70
2023-09-04T19:43:03.303Z,79.80
2023-09-04T19:45:32.342Z,79.80
2023-09-04T19:48:00.733Z,80.00
2023-09-04T19:50:30.556Z,80.10
2023-09-04T19:53:01.207Z,80.20
2023-09-04T19:55:33.223Z,80.30
2023-09-04T19:58:01.227Z,80.40
2023-09-04T20:00:32.896Z,80.80
2023-09-04T20:03:03.998Z,80.90
2023-09-04T20:05:36.375Z,81.20
2023-09-04T20:08:04.731Z,81.30
2023-09-04T20:10:33.457Z,81.20
2023-09-04T20:13:01.341Z,81.30
2023-09-04T20:15:43.166Z,81.10
2023-09-04T20:18:12.838Z,81.30
2023-09-04T20:20:43.109Z,81.60
2023-09-04T20:23:11.030Z,81.80
2023-09-04T20:25:39.133Z,82.10
2023-09-04T20:28:09.858Z,82.10
2023-09-04T20:30:41.498Z,82.20
2023-09-04T20:33:11.743Z,82.30
2023-09-04T20:35:39.705Z,82.20
2023-09-04T20:38:14.739Z,82.50
2023-09-04T20:40:47.540Z,82.50
2023-09-04T20:43:15.472Z,82.50
2023-09-04T20:45:44.696Z,82.70
2023-09-04T20:48:13.370Z,82.90
2023-09-04T20:50:41.750Z,82.70
2023-09-04T20:53:09.601Z,82.70
2023-09-04T20:55:39.242Z,82.70
2023-09-04T20:58:08.688Z,82.70
2023-09-04T21:00:37.375Z,82.80
2023-09-04T21:03:06.885Z,82.90
2023-09-04T21:05:34.976Z,83.00
2023-09-04T21:08:01.795Z,83.20
2023-09-04T21:10:28.551Z,83.20
2023-09-04T21:13:13.872Z,83.20
2023-09-04T21:15:59.448Z,83.00
2023-09-04T21:18:46.452Z,82.90
2023-09-04T21:21:34.234Z,82.60
2023-09-04T21:24:20.121Z,82.30
2023-09-04T21:27:05.984Z,82.20
2023-09-04T21:29:51.619Z,81.90
2023-09-04T21:32:36.887Z,81.80
2023-09-04T21:35:24.745Z,81.80
2023-09-04T21:38:10.428Z,81.50
2023-09-04T21:40:56.093Z,81.50
2023-09-04T21:43:41.583Z,81.00
2023-09-04T21:46:27.184Z,81.10
2023-09-04T21:49:12.842Z,80.90
2023-09-04T21:51:59.645Z,81.00
2023-09-04T21:54:45.214Z,81.20
2023-09-04T21:57:30.763Z,81.40
2023-09-04T22:00:18.580Z,81.50
2023-09-04T22:03:04.313Z,81.60
2023-09-04T22:05:51.439Z,81.40
2023-09-04T22:08:38.305Z,81.10
2023-09-04T22:11:23.912Z,81.10
2023-09-04T22:14:09.454Z,81.00
2023-09-04T22:17:01.139Z,81.00
2023-09-04T22:19:49.232Z,80.70
2023-09-04T22:22:34.922Z,80.50
2023-09-04T22:25:22.167Z,80.40
2023-09-04T22:28:07.682Z,80.20
2023-09-04T22:30:53.422Z,80.20
2023-09-04T22:33:38.805Z,80.00
2023-09-04T22:36:24.374Z,80.20
2023-09-04T22:39:09.953Z,80.40
2023-09-04T22:41:56.641Z,80.30
2023-09-04T22:44:43.097Z,80.50
2023-09-04T22:47:28.453Z,80.60
2023-09-04T22:50:13.862Z,81.30
2023-09-04T22:53:06.397Z,81.30
2023-09-04T22:55:52.624Z,81.30
2023-09-04T22:58:39.687Z,81.20
2023-09-04T23:01:28.536Z,81.30
2023-09-04T23:04:16.570Z,81.70
2023-09-04T23:07:02.075Z,81.90
2023-09-04T23:09:47.550Z,82.40
2023-09-04T23:12:33.234Z,82.40
2023-09-04T23:15:20.338Z,82.60
2023-09-04T23:18:05.987Z,82.90
2023-09-04T23:20:51.567Z,83.10
2023-09-04T23:23:19.405Z,83.00
2023-09-04T23:25:48.973Z,83.20
2023-09-04T23:28:19.125Z,83.10
2023-09-04T23:30:55.029Z,83.10
2023-09-04T23:33:37.761Z,83.30
2023-09-04T23:36:16.391Z,83.80
2023-09-04T23:39:08.866Z,83.90
2023-09-04T23:41:55.355Z,84.20
2023-09-04T23:44:40.855Z,84.20
2023-09-04T23:47:11.069Z,84.40
2023-09-04T23:49:39.231Z,84.40
2023-09-04T23:52:09.807Z,84.70
2023-09-04T23:54:38.705Z,84.80
2023-09-04T23:57:07.314Z,84.90
2023-09-04T23:59:35.915Z,85.20
